createdAt,value
2022-12-23T07:00:15.368Z,90.43
2022-12-23T07:02:43.599Z,90.38
2022-12-23T07:05:11.627Z,90.34
2022-12-23T07:07:39.421Z,90.26
2022-12-23T07:10:08.015Z,90.20
2022-12-23T07:12:35.760Z,90.10
2022-12-23T07:15:03.849Z,90.00
2022-12-23T07:17:32.431Z,89.97
2022-12-23T07:20:00.466Z,89.92
2022-12-23T07:22:28.445Z,89.86
2022-12-23T07:24:56.181Z,89.84
2022-12-23T07:27:23.938Z,89.82
2022-12-23T07:29:52.050Z,89.76
2022-12-23T07:32:20.205Z,89.70
2022-12-23T07:34:48.143Z,89.60
2022-12-23T07:37:16.014Z,89.53
2022-12-23T07:39:43.894Z,89.48
2022-12-23T07:44:59.681Z,89.39
2022-12-23T07:47:27.559Z,89.37
2022-12-23T07:49:55.372Z,89.32
2022-12-23T07:52:23.757Z,89.37
2022-12-23T07:54:51.497Z,89.31
2022-12-23T07:57:19.237Z,89.31
2022-12-23T07:59:47.029Z,89.42
2022-12-23T08:02:14.880Z,89.50
2022-12-23T08:04:46.361Z,89.64
2022-12-23T08:07:14.926Z,89.79
2022-12-23T08:09:42.737Z,89.84
2022-12-23T08:12:10.652Z,89.83
2022-12-23T08:14:38.609Z,89.78
2022-12-23T08:17:07.032Z,89.73
2022-12-23T08:19:34.835Z,89.62
2022-12-23T08:22:02.858Z,89.59
2022-12-23T08:24:31.219Z,89.55
2022-12-23T08:26:59.135Z,89.47
2022-12-23T08:29:30.077Z,89.44
2022-12-23T08:32:02.061Z,89.39
2022-12-23T08:34:29.868Z,89.28
2022-12-23T08:36:57.769Z,89.27
2022-12-23T08:39:25.982Z,89.25
2022-12-23T08:41:54.019Z,89.15
2022-12-23T08:44:22.062Z,89.02
2022-12-23T08:46:50.104Z,88.97
2022-12-23T08:49:18.142Z,88.93
2022-12-23T08:51:47.118Z,88.90
2022-12-23T08:54:16.144Z,88.89
2022-12-23T08:56:44.338Z,88.88
2022-12-23T08:59:19.024Z,88.88
2022-12-23T09:01:48.373Z,88.88
2022-12-23T09:04:17.153Z,88.87
2022-12-23T09:06:45.778Z,88.89
2022-12-23T09:09:15.995Z,88.88
2022-12-23T09:11:44.702Z,88.86
2022-12-23T09:14:12.965Z,88.91
2022-12-23T09:16:41.051Z,88.88
2022-12-23T09:19:09.225Z,88.86
2022-12-23T09:21:40.523Z,88.86
2022-12-23T09:24:08.692Z,88.88
2022-12-23T09:26:36.904Z,88.81
2022-12-23T09:29:05.241Z,88.84
2022-12-23T09:31:37.271Z,88.79
2022-12-23T09:34:06.585Z,88.76
2022-12-23T09:36:34.958Z,88.72
2022-12-23T09:39:04.142Z,88.60
2022-12-23T09:42:01.884Z,88.53
2022-12-23T09:44:58.892Z,88.51
2022-12-23T09:47:32.242Z,88.50
2022-12-23T09:50:17.411Z,88.52
2022-12-23T09:53:00.299Z,88.53
2022-12-23T09:55:52.281Z,88.54
2022-12-23T09:58:34.073Z,88.53
2022-12-23T10:01:45.134Z,88.50
2022-12-23T10:04:22.855Z,88.49
2022-12-23T10:07:12.375Z,88.51
2022-12-23T10:09:44.297Z,88.48
2022-12-23T10:12:39.409Z,88.47
2022-12-23T10:15:32.880Z,88.49
2022-12-23T10:18:07.008Z,88.50
2022-12-23T10:20:48.095Z,88.48
2022-12-23T10:23:37.516Z,88.38
2022-12-23T10:26:24.386Z,88.42
2022-12-23T10:29:20.078Z,88.40
2022-12-23T10:32:19.035Z,88.36
2022-12-23T10:35:22.408Z,88.29
2022-12-23T10:38:08.073Z,88.26
2022-12-23T10:41:08.856Z,88.26
2022-12-23T10:43:46.172Z,88.24
2022-12-23T10:46:35.363Z,88.31
2022-12-23T10:49:08.276Z,88.29
2022-12-23T10:51:56.683Z,88.41
2022-12-23T10:54:30.991Z,88.25
2022-12-23T10:56:59.703Z,88.20
2022-12-23T10:59:31.239Z,88.33
2022-12-23T11:02:06.731Z,88.32
2022-12-23T11:04:37.100Z,88.39
2022-12-23T11:07:42.087Z,88.35
2022-12-23T11:10:18.031Z,88.22
2022-12-23T11:12:49.678Z,88.10
2022-12-23T11:15:33.150Z,88.07
2022-12-23T11:18:21.784Z,88.13
2022-12-23T11:21:07.632Z,88.16
2022-12-23T11:23:36.786Z,88.15
2022-12-23T11:26:11.556Z,88.14
2022-12-23T11:28:51.311Z,88.03
2022-12-23T11:31:28.788Z,88.10
2022-12-23T11:34:00.971Z,88.24
2022-12-23T11:36:30.381Z,88.35
2022-12-23T11:39:20.682Z,88.35
2022-12-23T11:41:52.765Z,88.47
2022-12-23T11:44:23.546Z,88.44
2022-12-23T11:46:52.217Z,88.48
2022-12-23T11:49:25.098Z,88.40
2022-12-23T11:52:02.095Z,88.41
2022-12-23T11:54:30.146Z,88.36
2022-12-23T11:57:00.871Z,88.33
2022-12-23T11:59:44.933Z,88.31
2022-12-23T12:02:27.753Z,88.31
2022-12-23T12:05:00.852Z,88.31
2022-12-23T12:07:30.818Z,88.29
2022-12-23T12:10:01.443Z,88.27
2022-12-23T12:12:30.387Z,88.29
2022-12-23T12:15:00.072Z,88.35
2022-12-23T12:17:37.485Z,88.44
2022-12-23T12:20:21.005Z,88.52
2022-12-23T12:22:55.602Z,88.55
2022-12-23T12:25:55.140Z,88.57
2022-12-23T12:28:28.394Z,88.58
2022-12-23T12:31:06.152Z,88.58
2022-12-23T12:33:39.621Z,88.47
2022-12-23T12:36:16.056Z,88.41
2022-12-23T12:38:48.082Z,88.37
2022-12-23T12:41:39.898Z,88.35
2022-12-23T12:44:23.954Z,88.36
2022-12-23T12:47:16.008Z,88.34
2022-12-23T12:49:59.163Z,88.36
2022-12-23T12:52:28.419Z,88.56
2022-12-23T12:55:13.984Z,88.72
2022-12-23T12:57:42.243Z,88.88
2022-12-23T13:00:19.787Z,88.92
2022-12-23T13:02:47.871Z,89.00
2022-12-23T13:05:32.885Z,89.10
2022-12-23T13:08:29.099Z,89.16
2022-12-23T13:11:44.086Z,89.21
2022-12-23T13:14:27.705Z,89.26
2022-12-23T13:17:13.782Z,89.36
2022-12-23T13:20:16.315Z,89.42
2022-12-23T13:22:49.376Z,89.58
2022-12-23T13:25:34.306Z,89.68
2022-12-23T13:28:23.727Z,89.81
2022-12-23T13:31:01.933Z,89.95
2022-12-23T13:34:08.859Z,90.02
2022-12-23T13:37:08.120Z,90.12
2022-12-23T13:39:50.742Z,90.26
2022-12-23T13:42:29.307Z,90.39
2022-12-23T13:44:59.357Z,90.53
2022-12-23T13:47:36.322Z,90.57
2022-12-23T13:50:24.048Z,90.61
2022-12-23T13:53:13.356Z,90.58
2022-12-23T13:56:20.908Z,90.53
2022-12-23T13:58:50.970Z,90.48
2022-12-23T14:01:34.306Z,90.49
2022-12-23T14:04:37.652Z,90.49
2022-12-23T14:07:20.884Z,90.47
2022-12-23T14:09:58.366Z,90.47
2022-12-23T14:12:35.983Z,90.46
2022-12-23T14:15:19.872Z,90.46
2022-12-23T14:17:54.064Z,90.53
2022-12-23T14:20:50.508Z,90.60
2022-12-23T14:23:52.164Z,90.70
2022-12-23T14:26:49.238Z,90.86
2022-12-23T14:30:05.211Z,90.97
2022-12-23T14:32:50.464Z,91.11
2022-12-23T14:35:44.893Z,91.11
2022-12-23T14:38:15.937Z,91.08
2022-12-23T14:40:44.102Z,91.06
2022-12-23T14:43:31.398Z,91.04
2022-12-23T14:46:05.246Z,91.05
2022-12-23T14:48:37.121Z,91.03
2022-12-23T14:51:11.371Z,91.03
2022-12-23T14:53:52.271Z,91.05
2022-12-23T14:56:20.234Z,91.14
2022-12-23T14:59:05.399Z,91.10
2022-12-23T15:01:43.154Z,91.07
2022-12-23T15:04:14.086Z,91.10
2022-12-23T15:06:45.442Z,91.14
2022-12-23T15:09:39.788Z,91.19
2022-12-23T15:12:42.477Z,91.24
2022-12-23T15:15:15.683Z,91.34
2022-12-23T15:17:43.851Z,91.34
2022-12-23T15:20:21.222Z,91.35
2022-12-23T15:22:49.785Z,91.33
2022-12-23T15:25:26.975Z,91.33
2022-12-23T15:28:01.555Z,91.34
2022-12-23T15:30:35.783Z,91.35
2022-12-23T15:33:27.989Z,91.34
2022-12-23T15:35:57.691Z,91.33
2022-12-23T15:38:31.256Z,91.38
2022-12-23T15:41:02.503Z,91.41
2022-12-23T15:43:30.929Z,91.43
2022-12-23T15:46:09.628Z,91.55
2022-12-23T15:48:38.465Z,91.62
2022-12-23T15:51:12.968Z,91.67
2022-12-23T15:53:44.355Z,91.75
2022-12-23T15:56:26.311Z,91.81
2022-12-23T15:58:56.646Z,91.82
2022-12-23T16:01:26.592Z,91.83
2022-12-23T16:03:59.933Z,91.81
2022-12-23T16:06:33.150Z,91.76
2022-12-23T16:09:04.734Z,91.74
2022-12-23T16:11:49.050Z,91.70
2022-12-23T16:14:38.934Z,91.70
2022-12-23T16:17:10.491Z,91.73
2022-12-23T16:19:53.219Z,91.74
2022-12-23T16:22:21.532Z,91.72
2022-12-23T16:25:01.349Z,91.72
2022-12-23T16:27:41.185Z,91.72
2022-12-23T16:30:33.103Z,91.71
2022-12-23T16:33:07.423Z,91.70
2022-12-23T16:35:44.048Z,91.70
2022-12-23T16:38:19.627Z,91.81
2022-12-23T16:41:00.098Z,91.86
2022-12-23T16:43:28.173Z,91.90
2022-12-23T16:45:57.677Z,91.91
2022-12-23T16:48:36.278Z,91.91
2022-12-23T16:51:12.759Z,91.92
2022-12-23T16:53:40.764Z,91.90
2022-12-23T16:56:16.177Z,91.88
2022-12-23T16:58:44.751Z,91.82
2022-12-23T17:01:38.721Z,91.77
2022-12-23T17:04:08.348Z,91.76
2022-12-23T17:06:37.465Z,91.70
2022-12-23T17:09:08.410Z,91.67
2022-12-23T17:11:41.621Z,91.69
2022-12-23T17:14:23.191Z,91.80
2022-12-23T17:16:51.963Z,91.75
2022-12-23T17:19:27.779Z,91.81
2022-12-23T17:22:01.707Z,91.82
2022-12-23T17:24:30.164Z,91.84
2022-12-23T17:26:59.234Z,91.81
2022-12-23T17:29:28.297Z,91.77
2022-12-23T17:31:56.304Z,91.72
2022-12-23T17:34:24.663Z,91.71
2022-12-23T17:36:53.291Z,91.67
2022-12-23T17:39:22.292Z,91.58
2022-12-23T17:41:51.147Z,91.59
2022-12-23T17:44:19.346Z,91.41
2022-12-23T17:46:48.045Z,91.39
2022-12-23T17:49:16.021Z,91.40
2022-12-23T17:51:44.167Z,91.33
2022-12-23T17:54:24.586Z,91.26
2022-12-23T17:56:53.148Z,91.24
2022-12-23T17:59:21.916Z,91.28
2022-12-23T18:01:50.452Z,91.36
2022-12-23T18:04:18.600Z,91.41
2022-12-23T18:06:46.698Z,91.44
2022-12-23T18:09:14.979Z,91.45
2022-12-23T18:11:46.763Z,91.40
2022-12-23T18:14:18.615Z,91.17
2022-12-23T18:16:46.879Z,91.15
2022-12-23T18:19:20.566Z,91.06
2022-12-23T18:21:49.877Z,90.94
2022-12-23T18:24:18.939Z,90.89
2022-12-23T18:26:47.840Z,90.84
2022-12-23T18:29:15.829Z,90.77
2022-12-23T18:31:51.586Z,90.76
2022-12-23T18:34:20.326Z,90.71
2022-12-23T18:36:48.856Z,90.68
2022-12-23T18:39:17.047Z,90.62
2022-12-23T18:41:45.006Z,90.60
2022-12-23T18:44:20.793Z,90.55
2022-12-23T18:46:50.239Z,90.56
2022-12-23T18:49:18.346Z,90.53
2022-12-23T18:51:46.857Z,90.50
2022-12-23T18:54:16.216Z,90.47
2022-12-23T18:56:44.566Z,90.38
2022-12-23T18:59:16.840Z,90.43
2022-12-23T19:01:44.892Z,90.43
2022-12-23T19:04:13.830Z,90.42
2022-12-23T19:06:41.760Z,90.41
2022-12-23T19:09:15.933Z,90.41
2022-12-23T19:11:45.678Z,90.41
2022-12-23T19:14:13.758Z,90.40
2022-12-23T19:16:46.041Z,90.39
2022-12-23T19:19:17.113Z,90.40
2022-12-23T19:21:44.896Z,90.37
2022-12-23T19:24:12.708Z,90.38
2022-12-23T19:26:40.529Z,90.38
2022-12-23T19:29:09.884Z,90.37
2022-12-23T19:31:37.854Z,90.39
2022-12-23T19:34:09.746Z,90.38
2022-12-23T19:36:42.984Z,90.39
2022-12-23T19:39:16.995Z,90.38
2022-12-23T19:41:45.853Z,90.38
2022-12-23T19:44:14.943Z,90.40
2022-12-23T19:46:43.522Z,90.39
2022-12-23T19:49:19.314Z,90.41
2022-12-23T19:51:48.719Z,90.42
2022-12-23T19:54:18.085Z,90.43
2022-12-23T19:56:46.360Z,90.44
2022-12-23T19:59:14.438Z,90.43
2022-12-23T20:01:42.683Z,90.42
2022-12-23T20:04:11.306Z,90.42
2022-12-23T20:06:41.526Z,90.42
2022-12-23T20:09:12.128Z,90.43
2022-12-23T20:11:43.031Z,90.43
2022-12-23T20:14:12.184Z,90.44
2022-12-23T20:16:40.536Z,90.46
2022-12-23T20:19:08.373Z,90.45
2022-12-23T20:21:37.628Z,90.46
2022-12-23T20:24:06.735Z,90.45
2022-12-23T20:26:34.666Z,90.45
2022-12-23T20:29:02.584Z,90.45
2022-12-23T20:31:32.800Z,90.44
2022-12-23T20:34:01.785Z,90.43
2022-12-23T20:36:32.861Z,90.45
2022-12-23T20:39:02.125Z,90.43
2022-12-23T20:41:31.374Z,90.42
2022-12-23T20:46:47.872Z,90.42
2022-12-23T20:49:15.649Z,90.41
2022-12-23T20:51:43.475Z,90.42
2022-12-23T20:54:11.415Z,90.38
2022-12-23T20:56:39.199Z,90.40
2022-12-23T20:59:07.026Z,90.44
2022-12-23T21:01:38.341Z,90.45
2022-12-23T21:04:13.268Z,90.40
2022-12-23T21:06:41.516Z,90.38
2022-12-23T21:09:12.412Z,90.41
2022-12-23T21:11:43.894Z,90.43
2022-12-23T21:14:11.944Z,90.42
2022-12-23T21:16:39.924Z,90.43
2022-12-23T21:19:13.127Z,90.42
2022-12-23T21:21:40.972Z,90.40
2022-12-23T21:24:10.487Z,90.37
2022-12-23T21:26:38.647Z,90.36
2022-12-23T21:29:08.272Z,90.35
2022-12-23T21:31:39.316Z,90.35
2022-12-23T21:34:08.182Z,90.32
2022-12-23T21:36:38.098Z,90.30
2022-12-23T21:39:06.992Z,90.27
2022-12-23T21:41:37.675Z,90.27
2022-12-23T21:44:05.692Z,90.30
2022-12-23T21:46:34.203Z,90.34
2022-12-23T21:49:02.998Z,90.43
2022-12-23T21:51:39.445Z,90.44
2022-12-23T21:54:12.756Z,90.42
2022-12-23T21:56:41.610Z,90.38
2022-12-23T21:59:14.048Z,90.35
